createdAt,value
2019-02-08T00:02:27.317Z,2.07
2019-02-08T00:07:32.450Z,1.90
2019-02-08T00:12:36.940Z,2.10
2019-02-08T00:17:42.682Z,2.20
2019-02-08T00:22:47.245Z,2.00
2019-02-08T00:27:52.532Z,2.33
2019-02-08T00:32:58.799Z,2.83
2019-02-08T00:38:03.860Z,2.53
2019-02-08T00:43:08.326Z,1.87
2019-02-08T00:48:12.709Z,1.80
2019-02-08T00:53:21.793Z,2.17
2019-02-08T00:58:26.658Z,2.23
2019-02-08T01:03:31.249Z,2.67
2019-02-08T01:08:35.405Z,2.27
2019-02-08T01:13:39.779Z,2.83
2019-02-08T01:18:44.893Z,3.37
2019-02-08T01:23:49.300Z,3.00
2019-02-08T01:28:55.606Z,2.93
2019-02-08T01:34:00.531Z,2.67
2019-02-08T01:39:07.925Z,2.23
2019-02-08T01:44:12.308Z,2.10
2019-02-08T01:49:17.628Z,1.73
2019-02-08T01:54:23.221Z,2.07
2019-02-08T01:59:30.259Z,1.50
2019-02-08T02:04:35.033Z,1.43
2019-02-08T02:09:40.221Z,2.50
2019-02-08T02:14:45.230Z,1.50
2019-02-08T02:19:50.543Z,1.83
2019-02-08T02:24:56.164Z,2.13
2019-02-08T02:30:00.616Z,1.77
2019-02-08T02:35:06.180Z,1.77
2019-02-08T02:40:11.824Z,1.90
2019-02-08T02:45:23.570Z,1.23
2019-02-08T02:50:31.920Z,1.17
2019-02-08T02:55:39.697Z,1.40
2019-02-08T03:00:45.666Z,1.50
2019-02-08T03:05:50.376Z,1.60
2019-02-08T03:10:54.824Z,1.30
2019-02-08T03:16:00.819Z,1.70
2019-02-08T03:21:08.563Z,1.30
2019-02-08T03:26:12.887Z,1.27
2019-02-08T03:31:17.875Z,1.43
2019-02-08T03:36:22.856Z,1.77
2019-02-08T03:41:31.923Z,1.20
2019-02-08T03:46:36.731Z,1.47
2019-02-08T03:51:41.729Z,1.23
2019-02-08T03:56:49.412Z,1.30
2019-02-08T04:01:57.233Z,1.97
2019-02-08T04:07:01.807Z,1.53
2019-02-08T04:12:07.069Z,2.30
2019-02-08T04:17:23.412Z,2.23
2019-02-08T04:22:28.622Z,1.80
2019-02-08T04:27:33.447Z,2.27
2019-02-08T04:32:37.577Z,2.40
2019-02-08T04:37:42.424Z,2.83
2019-02-08T04:42:46.848Z,2.30
2019-02-08T04:47:51.782Z,2.00
2019-02-08T04:52:57.441Z,2.20
2019-02-08T04:58:02.524Z,2.83
2019-02-08T05:03:10.019Z,3.10
2019-02-08T05:08:17.498Z,2.50
2019-02-08T05:13:22.370Z,2.73
2019-02-08T05:18:28.675Z,2.63
2019-02-08T05:23:34.618Z,3.10
2019-02-08T05:28:38.909Z,2.47
2019-02-08T05:33:47.792Z,2.20
2019-02-08T05:38:52.463Z,2.50
2019-02-08T05:43:56.665Z,2.83
2019-02-08T05:49:00.857Z,3.20
2019-02-08T05:54:05.258Z,3.63
2019-02-08T05:59:12.704Z,2.60
2019-02-08T06:04:17.690Z,3.50
2019-02-08T06:09:22.077Z,2.50
2019-02-08T06:14:26.209Z,2.90
2019-02-08T06:19:31.123Z,3.57
2019-02-08T06:24:35.956Z,2.67
2019-02-08T06:29:40.924Z,3.10
2019-02-08T06:34:46.620Z,2.93
2019-02-08T06:39:51.034Z,2.80
2019-02-08T06:44:56.186Z,2.97
2019-02-08T06:50:00.588Z,2.67
2019-02-08T06:55:10.782Z,3.23
2019-02-08T07:00:20.004Z,2.90
2019-02-08T07:05:42.503Z,2.30
2019-02-08T07:11:20.007Z,2.37
2019-02-08T07:16:49.032Z,2.87
2019-02-08T07:22:12.010Z,2.43
2019-02-08T07:27:41.332Z,1.97
2019-02-08T07:33:08.651Z,2.23
2019-02-08T07:38:26.774Z,3.20
2019-02-08T07:43:55.857Z,2.40
2019-02-08T07:49:27.939Z,2.83
2019-02-08T07:54:52.829Z,2.47
2019-02-08T08:00:20.701Z,2.70
2019-02-08T08:05:39.883Z,3.35
2019-02-08T08:10:56.329Z,2.00
2019-02-08T08:16:43.877Z,2.37
2019-02-08T08:22:04.628Z,2.07
2019-02-08T12:06:40.865Z,0.90
2019-02-08T12:11:45.733Z,0.97
2019-02-08T12:16:52.647Z,1.00
2019-02-08T12:22:01.345Z,1.53
2019-02-08T12:27:06.193Z,1.17
2019-02-08T12:32:11.133Z,1.10
2019-02-08T12:37:16.039Z,1.67
2019-02-08T12:42:21.621Z,0.73
2019-02-08T12:47:26.044Z,1.40
2019-02-08T12:52:32.573Z,0.90
2019-02-08T12:57:40.079Z,1.23
2019-02-08T13:02:45.236Z,1.00
2019-02-08T13:07:50.290Z,1.27
2019-02-08T13:13:05.327Z,1.30
2019-02-08T13:18:16.989Z,1.33
2019-02-08T13:23:22.325Z,1.40
2019-02-08T13:28:34.272Z,1.53
2019-02-08T13:33:42.296Z,0.97
2019-02-08T13:38:47.401Z,1.40
2019-02-08T13:43:52.471Z,1.70
2019-02-08T13:48:59.087Z,1.00
2019-02-08T13:54:05.244Z,1.43
2019-02-08T13:59:12.329Z,1.30
2019-02-08T14:04:17.351Z,1.40
2019-02-08T14:09:22.161Z,1.10
2019-02-08T14:14:26.675Z,0.80
2019-02-08T14:19:31.552Z,1.37
2019-02-08T14:24:36.719Z,1.33
2019-02-08T14:29:46.257Z,0.87
2019-02-08T14:34:55.257Z,1.70
2019-02-08T14:45:32.960Z,1.73
2019-02-08T14:50:41.723Z,1.53
2019-02-08T14:55:47.728Z,1.90
2019-02-08T15:00:52.683Z,1.90
2019-02-08T15:05:58.016Z,1.80
2019-02-08T15:11:05.342Z,2.07
2019-02-08T15:16:32.560Z,2.13
2019-02-08T22:58:26.160Z,2.47
2019-02-08T23:03:30.997Z,2.17
2019-02-08T23:08:34.982Z,1.97
2019-02-08T23:13:41.031Z,2.17
2019-02-08T23:18:45.253Z,2.50
2019-02-08T23:23:49.412Z,2.40
2019-02-08T23:28:54.333Z,2.40
2019-02-08T23:33:58.736Z,2.43
2019-02-08T23:39:05.566Z,2.60
2019-02-08T23:44:13.010Z,2.03
2019-02-08T23:49:17.468Z,2.40
2019-02-08T23:54:22.475Z,2.67
2019-02-08T23:59:38.063Z,2.20
